sensor_id;sensor_type;location;lat;lon;timestamp;pressure;altitude;pressure_sealevel;temperature;humidity
31225;BME280;17847;31.524;74.366;2022-08-19T00:00:50;97580.66;;;31.46;69.13
31225;BME280;17847;31.524;74.366;2022-08-19T00:03:48;97575.63;;;31.55;68.46
31225;BME280;17847;31.524;74.366;2022-08-19T00:06:24;97584.00;;;31.25;69.16
31225;BME280;17847;31.524;74.366;2022-08-19T00:09:22;97583.63;;;31.30;69.87
31225;BME280;17847;31.524;74.366;2022-08-19T00:12:17;97586.88;;;31.35;69.84
31225;BME280;17847;31.524;74.366;2022-08-19T00:15:15;97591.72;;;31.42;69.49
31225;BME280;17847;31.524;74.366;2022-08-19T00:17:51;97592.28;;;31.21;70.47
31225;BME280;17847;31.524;74.366;2022-08-19T00:20:46;97597.56;;;30.99;71.14
31225;BME280;17847;31.524;74.366;2022-08-19T00:23:28;97595.69;;;31.07;70.79
31225;BME280;17847;31.524;74.366;2022-08-19T00:26:18;97605.03;;;31.29;70.77
31225;BME280;17847;31.524;74.366;2022-08-19T00:29:02;97606.38;;;31.09;71.18
31225;BME280;17847;31.524;74.366;2022-08-19T00:31:52;97607.59;;;30.81;71.95
31225;BME280;17847;31.524;74.366;2022-08-19T00:34:31;97608.84;;;30.87;72.10
31225;BME280;17847;31.524;74.366;2022-08-19T00:37:27;97614.94;;;30.96;71.72
31225;BME280;17847;31.524;74.366;2022-08-19T00:40:11;97613.31;;;30.92;71.35
31225;BME280;17847;31.524;74.366;2022-08-19T00:43:00;97621.25;;;30.97;71.35
31225;BME280;17847;31.524;74.366;2022-08-19T00:45:42;97622.19;;;31.08;71.25
31225;BME280;17847;31.524;74.366;2022-08-19T00:48:33;97623.75;;;31.06;70.95
31225;BME280;17847;31.524;74.366;2022-08-19T00:51:16;97624.31;;;30.88;71.57
31225;BME280;17847;31.524;74.366;2022-08-19T00:54:05;97632.19;;;30.86;71.88
31225;BME280;17847;31.524;74.366;2022-08-19T00:56:48;97640.66;;;30.97;71.23
31225;BME280;17847;31.524;74.366;2022-08-19T00:59:39;97640.56;;;30.63;72.38
31225;BME280;17847;31.524;74.366;2022-08-19T01:02:35;97643.78;;;30.65;72.52
31225;BME280;17847;31.524;74.366;2022-08-19T01:05:30;97645.72;;;30.64;72.33
31225;BME280;17847;31.524;74.366;2022-08-19T01:08:15;97650.22;;;30.73;71.82
31225;BME280;17847;31.524;74.366;2022-08-19T01:11:04;97652.00;;;30.88;70.98
31225;BME280;17847;31.524;74.366;2022-08-19T01:13:59;97656.59;;;30.77;71.41
31225;BME280;17847;31.524;74.366;2022-08-19T01:16:42;97650.53;;;30.68;71.28
31225;BME280;17847;31.524;74.366;2022-08-19T01:19:35;97650.22;;;30.73;71.91
31225;BME280;17847;31.524;74.366;2022-08-19T01:25:18;97656.00;;;30.91;70.98
31225;BME280;17847;31.524;74.366;2022-08-19T01:28:02;97653.78;;;31.00;71.24
31225;BME280;17847;31.524;74.366;2022-08-19T01:31:16;97667.38;;;31.12;70.15
31225;BME280;17847;31.524;74.366;2022-08-19T01:34:01;97670.34;;;30.96;70.82
31225;BME280;17847;31.524;74.366;2022-08-19T01:36:51;97671.72;;;30.83;71.55
31225;BME280;17847;31.524;74.366;2022-08-19T01:39:32;97677.81;;;30.92;71.14
31225;BME280;17847;31.524;74.366;2022-08-19T01:42:21;97683.91;;;30.78;71.53
31225;BME280;17847;31.524;74.366;2022-08-19T01:45:04;97684.34;;;30.80;72.00
31225;BME280;17847;31.524;74.366;2022-08-19T01:47:53;97681.47;;;30.73;72.28
31225;BME280;17847;31.524;74.366;2022-08-19T01:50:36;97688.56;;;30.71;72.14
31225;BME280;17847;31.524;74.366;2022-08-19T01:53:26;97693.78;;;31.02;71.50
31225;BME280;17847;31.524;74.366;2022-08-19T01:56:07;97691.56;;;30.62;73.19
31225;BME280;17847;31.524;74.366;2022-08-19T01:59:07;97687.78;;;30.74;72.95
31225;BME280;17847;31.524;74.366;2022-08-19T02:01:50;97690.78;;;31.15;71.55
31225;BME280;17847;31.524;74.366;2022-08-19T02:04:46;97689.97;;;31.45;70.45
31225;BME280;17847;31.524;74.366;2022-08-19T09:06:06;97635.00;;;36.28;50.79
31225;BME280;17847;31.524;74.366;2022-08-19T09:09:18;97636.25;;;36.64;48.66
31225;BME280;17847;31.524;74.366;2022-08-19T09:16:04;97626.88;;;36.86;48.52
31225;BME280;17847;31.524;74.366;2022-08-19T09:19:06;97623.31;;;36.81;48.42
31225;BME280;17847;31.524;74.366;2022-08-19T09:22:03;97621.19;;;36.93;48.81
31225;BME280;17847;31.524;74.366;2022-08-19T09:24:43;97610.28;;;36.71;49.50
31225;BME280;17847;31.524;74.366;2022-08-19T09:27:43;97603.25;;;36.52;48.13
31225;BME280;17847;31.524;74.366;2022-08-19T09:30:27;97610.28;;;36.71;48.69
31225;BME280;17847;31.524;74.366;2022-08-19T09:33:32;97596.00;;;36.96;48.66
31225;BME280;17847;31.524;74.366;2022-08-19T09:36:12;97603.03;;;36.74;51.02
31225;BME280;17847;31.524;74.366;2022-08-19T09:39:14;97607.84;;;36.73;50.12
31225;BME280;17847;31.524;74.366;2022-08-19T09:41:49;97597.00;;;36.37;50.92
31225;BME280;17847;31.524;74.366;2022-08-19T09:44:55;97603.28;;;36.49;50.07
31225;BME280;17847;31.524;74.366;2022-08-19T09:47:43;97600.13;;;36.43;49.03
31225;BME280;17847;31.524;74.366;2022-08-19T09:50:32;97594.72;;;36.63;48.70
31225;BME280;17847;31.524;74.366;2022-08-19T09:53:26;97582.41;;;36.60;50.53
31225;BME280;17847;31.524;74.366;2022-08-19T09:56:18;97588.97;;;36.43;50.18
31225;BME280;17847;31.524;74.366;2022-08-19T09:58:54;97575.28;;;36.56;49.80
31225;BME280;17847;31.524;74.366;2022-08-19T10:01:50;97569.78;;;36.45;50.42
31225;BME280;17847;31.524;74.366;2022-08-19T10:04:27;97574.38;;;36.66;50.12
31225;BME280;17847;31.524;74.366;2022-08-19T10:07:41;97568.47;;;36.91;49.84
31225;BME280;17847;31.524;74.366;2022-08-19T10:10:36;97563.53;;;36.30;51.52
31225;BME280;17847;31.524;74.366;2022-08-19T10:13:21;97573.19;;;36.63;51.13
31225;BME280;17847;31.524;74.366;2022-08-19T10:16:21;97556.69;;;36.38;51.41
31225;BME280;17847;31.524;74.366;2022-08-19T10:19:03;97549.13;;;36.35;51.15
31225;BME280;17847;31.524;74.366;2022-08-19T10:21:54;97558.31;;;36.74;49.99
31225;BME280;17847;31.524;74.366;2022-08-19T10:24:36;97552.44;;;36.95;50.43
31225;BME280;17847;31.524;74.366;2022-08-19T10:27:32;97542.06;;;36.96;49.53
31225;BME280;17847;31.524;74.366;2022-08-19T10:30:31;97548.34;;;36.73;49.62
31225;BME280;17847;31.524;74.366;2022-08-19T10:33:14;97543.09;;;36.40;50.88
31225;BME280;17847;31.524;74.366;2022-08-19T10:36:33;97536.31;;;36.38;49.12
31225;BME280;17847;31.524;74.366;2022-08-19T10:39:31;97533.00;;;36.50;48.86
31225;BME280;17847;31.524;74.366;2022-08-19T10:42:28;97530.16;;;36.16;48.31
31225;BME280;17847;31.524;74.366;2022-08-19T10:45:06;97537.19;;;36.31;48.31
31225;BME280;17847;31.524;74.366;2022-08-19T10:48:03;97523.19;;;36.73;47.63
31225;BME280;17847;31.524;74.366;2022-08-19T10:50:53;97526.41;;;36.71;47.79
31225;BME280;17847;31.524;74.366;2022-08-19T10:54:02;97514.53;;;36.60;48.09
31225;BME280;17847;31.524;74.366;2022-08-19T10:56:46;97514.84;;;36.31;48.88
31225;BME280;17847;31.524;74.366;2022-08-19T10:59:41;97515.81;;;36.17;50.03
31225;BME280;17847;31.524;74.366;2022-08-19T11:02:16;97515.75;;;36.55;49.39
31225;BME280;17847;31.524;74.366;2022-08-19T11:05:12;97515.00;;;36.17;50.96
31225;BME280;17847;31.524;74.366;2022-08-19T11:07:50;97508.91;;;35.84;51.14
31225;BME280;17847;31.524;74.366;2022-08-19T11:11:04;97510.63;;;36.12;49.52
31225;BME280;17847;31.524;74.366;2022-08-19T11:13:42;97506.50;;;36.28;49.44
31225;BME280;17847;31.524;74.366;2022-08-19T11:16:38;97504.34;;;36.42;50.54
31225;BME280;17847;31.524;74.366;2022-08-19T11:19:14;97497.63;;;36.36;49.57
31225;BME280;17847;31.524;74.366;2022-08-19T11:22:11;97494.81;;;36.36;49.23
31225;BME280;17847;31.524;74.366;2022-08-19T11:24:52;97482.19;;;36.59;49.89
31225;BME280;17847;31.524;74.366;2022-08-19T11:27:47;97483.50;;;36.51;49.05
31225;BME280;17847;31.524;74.366;2022-08-19T11:30:28;97488.69;;;36.11;49.52
31225;BME280;17847;31.524;74.366;2022-08-19T11:33:17;97489.50;;;36.07;50.03
31225;BME280;17847;31.524;74.366;2022-08-19T11:35:53;97490.22;;;36.19;49.66
31225;BME280;17847;31.524;74.366;2022-08-19T11:38:54;97476.59;;;36.24;49.38
31225;BME280;17847;31.524;74.366;2022-08-19T11:41:29;97486.63;;;36.22;50.36
31225;BME280;17847;31.524;74.366;2022-08-19T11:44:28;97481.69;;;35.92;49.21
31225;BME280;17847;31.524;74.366;2022-08-19T11:47:10;97471.09;;;35.76;49.49
31225;BME280;17847;31.524;74.366;2022-08-19T11:49:59;97466.34;;;36.11;49.97
31225;BME280;17847;31.524;74.366;2022-08-19T11:52:42;97469.88;;;35.77;49.25
31225;BME280;17847;31.524;74.366;2022-08-19T11:55:32;97467.41;;;35.86;50.03
31225;BME280;17847;31.524;74.366;2022-08-19T11:58:18;97460.94;;;35.96;49.49
31225;BME280;17847;31.524;74.366;2022-08-19T12:01:08;97457.09;;;36.21;49.54
31225;BME280;17847;31.524;74.366;2022-08-19T12:03:48;97453.09;;;35.80;50.62
31225;BME280;17847;31.524;74.366;2022-08-19T12:06:45;97450.78;;;35.72;50.31
31225;BME280;17847;31.524;74.366;2022-08-19T12:09:40;97458.69;;;35.80;50.67
31225;BME280;17847;31.524;74.366;2022-08-19T12:12:35;97454.78;;;35.67;51.42
31225;BME280;17847;31.524;74.366;2022-08-19T12:15:14;97453.66;;;35.61;50.98
31225;BME280;17847;31.524;74.366;2022-08-19T12:18:16;97453.16;;;35.73;51.57
31225;BME280;17847;31.524;74.366;2022-08-19T12:20:53;97455.81;;;35.39;52.55
31225;BME280;17847;31.524;74.366;2022-08-19T12:23:49;97457.41;;;35.40;52.38
31225;BME280;17847;31.524;74.366;2022-08-19T12:26:33;97447.72;;;35.55;52.11
31225;BME280;17847;31.524;74.366;2022-08-19T12:29:33;97449.72;;;35.55;52.55
31225;BME280;17847;31.524;74.366;2022-08-19T12:32:43;97443.97;;;35.27;53.03
31225;BME280;17847;31.524;74.366;2022-08-19T12:35:25;97445.09;;;35.34;53.50
31225;BME280;17847;31.524;74.366;2022-08-19T12:38:13;97455.03;;;35.38;53.29
31225;BME280;17847;31.524;74.366;2022-08-19T12:40:56;97460.25;;;35.33;53.63
31225;BME280;17847;31.524;74.366;2022-08-19T12:43:47;97466.06;;;34.93;54.29
31225;BME280;17847;31.524;74.366;2022-08-19T12:46:31;97470.44;;;34.90;54.66
31225;BME280;17847;31.524;74.366;2022-08-19T12:49:21;97458.75;;;35.21;54.44
31225;BME280;17847;31.524;74.366;2022-08-19T12:52:25;97456.09;;;34.96;54.23
31225;BME280;17847;31.524;74.366;2022-08-19T12:55:13;97447.72;;;34.96;53.64
31225;BME280;17847;31.524;74.366;2022-08-19T12:58:08;97455.72;;;34.94;54.14
31225;BME280;17847;31.524;74.366;2022-08-19T13:01:30;97454.03;;;35.07;53.54
31225;BME280;17847;31.524;74.366;2022-08-19T13:04:16;97457.03;;;34.71;54.03
31225;BME280;17847;31.524;74.366;2022-08-19T13:07:04;97460.97;;;34.74;53.29
31225;BME280;17847;31.524;74.366;2022-08-19T13:09:53;97471.00;;;34.53;53.81
31225;BME280;17847;31.524;74.366;2022-08-19T13:12:50;97461.13;;;34.38;54.16
31225;BME280;17847;31.524;74.366;2022-08-19T13:15:51;97457.41;;;34.69;53.39
31225;BME280;17847;31.524;74.366;2022-08-19T13:18:42;97462.63;;;34.57;52.98
31225;BME280;17847;31.524;74.366;2022-08-19T13:21:26;97461.84;;;34.52;53.23
31225;BME280;17847;31.524;74.366;2022-08-19T13:24:17;97467.41;;;34.67;52.65
31225;BME280;17847;31.524;74.366;2022-08-19T13:27:07;97465.44;;;34.53;53.06
31225;BME280;17847;31.524;74.366;2022-08-19T13:29:55;97476.25;;;34.26;52.83
31225;BME280;17847;31.524;74.366;2022-08-19T13:32:56;97477.84;;;34.12;52.86
31225;BME280;17847;31.524;74.366;2022-08-19T13:35:59;97474.63;;;34.39;52.59
31225;BME280;17847;31.524;74.366;2022-08-19T13:38:44;97479.81;;;34.33;52.21
31225;BME280;17847;31.524;74.366;2022-08-19T13:41:33;97481.78;;;34.44;52.28
31225;BME280;17847;31.524;74.366;2022-08-19T13:44:16;97480.94;;;34.54;51.74
31225;BME280;17847;31.524;74.366;2022-08-19T13:47:06;97487.75;;;34.49;52.11
31225;BME280;17847;31.524;74.366;2022-08-19T13:49:50;97485.44;;;34.26;52.42
31225;BME280;17847;31.524;74.366;2022-08-19T13:52:40;97488.25;;;33.87;53.47
31225;BME280;17847;31.524;74.366;2022-08-19T13:55:25;97489.41;;;34.11;53.24
31225;BME280;17847;31.524;74.366;2022-08-19T13:58:14;97490.19;;;34.29;52.89
31225;BME280;17847;31.524;74.366;2022-08-19T14:00:57;97492.22;;;34.00;53.18
31225;BME280;17847;31.524;74.366;2022-08-19T14:04:05;97499.78;;;34.00;53.70
31225;BME280;17847;31.524;74.366;2022-08-19T14:07:06;97493.78;;;34.16;53.55
31225;BME280;17847;31.524;74.366;2022-08-19T14:10:22;97496.16;;;34.10;53.48
31225;BME280;17847;31.524;74.366;2022-08-19T14:13:26;97489.00;;;34.16;53.54
31225;BME280;17847;31.524;74.366;2022-08-19T14:16:20;97500.16;;;33.91;53.83
31225;BME280;17847;31.524;74.366;2022-08-19T14:19:33;97503.34;;;34.07;53.74
31225;BME280;17847;31.524;74.366;2022-08-19T14:22:33;97506.53;;;33.73;55.05
31225;BME280;17847;31.524;74.366;2022-08-19T14:26:11;97500.97;;;33.66;54.22
31225;BME280;17847;31.524;74.366;2022-08-19T14:29:07;97501.75;;;33.78;54.19
31225;BME280;17847;31.524;74.366;2022-08-19T14:32:22;97507.34;;;33.92;53.69
31225;BME280;17847;31.524;74.366;2022-08-19T14:35:18;97509.72;;;33.86;53.13
31225;BME280;17847;31.524;74.366;2022-08-19T14:38:34;97509.72;;;34.19;53.00
31225;BME280;17847;31.524;74.366;2022-08-19T14:41:30;97509.69;;;33.61;54.35
31225;BME280;17847;31.524;74.366;2022-08-19T14:44:45;97509.31;;;33.70;54.63
31225;BME280;17847;31.524;74.366;2022-08-19T14:47:39;97511.28;;;34.05;54.15
31225;BME280;17847;31.524;74.366;2022-08-19T14:50:56;97517.25;;;33.89;55.19
31225;BME280;17847;31.524;74.366;2022-08-19T14:53:57;97528.41;;;33.82;54.86
31225;BME280;17847;31.524;74.366;2022-08-19T14:57:15;97526.41;;;33.68;55.25
31225;BME280;17847;31.524;74.366;2022-08-19T15:00:10;97523.63;;;33.90;54.71
31225;BME280;17847;31.524;74.366;2022-08-19T15:03:25;97533.19;;;33.74;55.28
31225;BME280;17847;31.524;74.366;2022-08-19T15:06:20;97539.13;;;33.94;55.18
31225;BME280;17847;31.524;74.366;2022-08-19T15:09:35;97540.72;;;33.78;55.35
31225;BME280;17847;31.524;74.366;2022-08-19T15:12:11;97542.69;;;33.66;55.35
31225;BME280;17847;31.524;74.366;2022-08-19T15:15:24;97542.31;;;33.79;55.09
31225;BME280;17847;31.524;74.366;2022-08-19T15:18:01;97554.22;;;33.65;55.82
31225;BME280;17847;31.524;74.366;2022-08-19T15:21:00;97555.81;;;33.84;55.26
31225;BME280;17847;31.524;74.366;2022-08-19T15:23:47;97565.38;;;33.93;54.88
31225;BME280;17847;31.524;74.366;2022-08-19T15:26:37;97565.38;;;33.76;55.44
31225;BME280;17847;31.524;74.366;2022-08-19T15:29:19;97563.78;;;33.92;55.42
31225;BME280;17847;31.524;74.366;2022-08-19T15:32:10;97565.78;;;33.92;54.33
31225;BME280;17847;31.524;74.366;2022-08-19T15:34:53;97561.31;;;33.41;56.31
31225;BME280;17847;31.524;74.366;2022-08-19T15:37:53;97568.91;;;33.54;56.08
31225;BME280;17847;31.524;74.366;2022-08-19T15:40:30;97576.50;;;33.68;55.91
31225;BME280;17847;31.524;74.366;2022-08-19T15:43:25;97585.22;;;33.70;55.87
31225;BME280;17847;31.524;74.366;2022-08-19T15:46:01;97589.25;;;33.77;56.24
31225;BME280;17847;31.524;74.366;2022-08-19T15:49:01;97593.50;;;33.34;57.10
31225;BME280;17847;31.524;74.366;2022-08-19T15:51:39;97604.25;;;33.47;56.19
31225;BME280;17847;31.524;74.366;2022-08-19T15:54:36;97603.47;;;33.46;56.44
31225;BME280;17847;31.524;74.366;2022-08-19T15:57:12;97601.84;;;33.42;56.59
31225;BME280;17847;31.524;74.366;2022-08-19T16:00:10;97616.06;;;33.15;57.74
31225;BME280;17847;31.524;74.366;2022-08-19T16:03:13;97619.63;;;33.12;57.37
31225;BME280;17847;31.524;74.366;2022-08-19T16:06:21;97620.06;;;33.21;57.07
31225;BME280;17847;31.524;74.366;2022-08-19T16:09:06;97612.16;;;33.38;56.41
31225;BME280;17847;31.524;74.366;2022-08-19T16:11:59;97631.22;;;33.35;56.38
31225;BME280;17847;31.524;74.366;2022-08-19T16:14:55;97634.84;;;33.43;57.06
31225;BME280;17847;31.524;74.366;2022-08-19T16:17:54;97642.38;;;33.39;56.79
31225;BME280;17847;31.524;74.366;2022-08-19T16:20:31;97647.91;;;33.35;56.92
31225;BME280;17847;31.524;74.366;2022-08-19T16:23:26;97651.91;;;33.42;56.67
31225;BME280;17847;31.524;74.366;2022-08-19T16:26:01;97657.47;;;33.45;57.08
31225;BME280;17847;31.524;74.366;2022-08-19T16:28:58;97664.69;;;33.53;56.71
31225;BME280;17847;31.524;74.366;2022-08-19T16:31:47;97667.38;;;33.32;57.56
31225;BME280;17847;31.524;74.366;2022-08-19T16:34:38;97677.19;;;33.11;57.89
31225;BME280;17847;31.524;74.366;2022-08-19T16:37:20;97672.56;;;33.37;57.18
31225;BME280;17847;31.524;74.366;2022-08-19T16:40:10;97668.09;;;33.14;57.61
31225;BME280;17847;31.524;74.366;2022-08-19T16:42:54;97665.72;;;33.20;57.71
31225;BME280;17847;31.524;74.366;2022-08-19T16:45:46;97670.94;;;33.32;57.06
31225;BME280;17847;31.524;74.366;2022-08-19T16:48:30;97676.50;;;33.25;57.83
31225;BME280;17847;31.524;74.366;2022-08-19T16:51:21;97683.59;;;33.15;58.05
31225;BME280;17847;31.524;74.366;2022-08-19T16:54:04;97676.91;;;33.38;57.68
31225;BME280;17847;31.524;74.366;2022-08-19T16:56:53;97684.41;;;33.20;57.90
31225;BME280;17847;31.524;74.366;2022-08-19T16:59:36;97694.56;;;32.97;58.52
31225;BME280;17847;31.524;74.366;2022-08-19T17:02:33;97691.03;;;33.01;58.22
31225;BME280;17847;31.524;74.366;2022-08-19T17:05:15;97696.28;;;33.16;57.32
31225;BME280;17847;31.524;74.366;2022-08-19T17:08:11;97693.84;;;33.08;58.10
31225;BME280;17847;31.524;74.366;2022-08-19T17:10:48;97698.72;;;33.25;57.46
31225;BME280;17847;31.524;74.366;2022-08-19T17:13:57;97694.94;;;32.89;58.53
31225;BME280;17847;31.524;74.366;2022-08-19T17:16:52;97692.19;;;32.92;58.59
31225;BME280;17847;31.524;74.366;2022-08-19T17:19:47;97683.59;;;33.15;58.00
31225;BME280;17847;31.524;74.366;2022-08-19T17:22:28;97681.88;;;32.96;58.82
31225;BME280;17847;31.524;74.366;2022-08-19T17:25:17;97676.78;;;33.06;58.53
31225;BME280;17847;31.524;74.366;2022-08-19T17:27:54;97682.22;;;32.88;58.91
31225;BME280;17847;31.524;74.366;2022-08-19T17:30:49;97679.06;;;32.89;59.33
31225;BME280;17847;31.524;74.366;2022-08-19T17:33:32;97686.06;;;32.69;59.39
31225;BME280;17847;31.524;74.366;2022-08-19T17:36:22;97679.78;;;32.79;59.48
31225;BME280;17847;31.524;74.366;2022-08-19T17:39:04;97687.31;;;32.78;59.46
31225;BME280;17847;31.524;74.366;2022-08-19T17:41:52;97671.03;;;32.81;59.41
31225;BME280;17847;31.524;74.366;2022-08-19T17:44:36;97667.94;;;32.89;58.92
31225;BME280;17847;31.524;74.366;2022-08-19T17:47:31;97667.13;;;32.85;59.26
31225;BME280;17847;31.524;74.366;2022-08-19T17:50:18;97660.44;;;32.97;59.17
31225;BME280;17847;31.524;74.366;2022-08-19T17:53:08;97656.81;;;32.89;59.56
31225;BME280;17847;31.524;74.366;2022-08-19T17:55:51;97662.41;;;32.93;59.70
31225;BME280;17847;31.524;74.366;2022-08-19T17:58:46;97674.34;;;32.45;60.27
31225;BME280;17847;31.524;74.366;2022-08-19T18:01:35;97673.00;;;32.76;59.91
31225;BME280;17847;31.524;74.366;2022-08-19T18:04:33;97655.13;;;32.70;60.36
31225;BME280;17847;31.524;74.366;2022-08-19T18:07:22;97655.69;;;32.42;60.41
31225;BME280;17847;31.524;74.366;2022-08-19T18:10:19;97652.88;;;32.38;61.21
31225;BME280;17847;31.524;74.366;2022-08-19T18:13:07;97655.38;;;32.54;60.72
31225;BME280;17847;31.524;74.366;2022-08-19T18:16:04;97651.78;;;32.50;61.07
31225;BME280;17847;31.524;74.366;2022-08-19T18:18:59;97651.59;;;32.81;60.11
31225;BME280;17847;31.524;74.366;2022-08-19T18:21:54;97651.25;;;32.34;61.45
31225;BME280;17847;31.524;74.366;2022-08-19T18:24:40;97654.88;;;32.42;61.37
31225;BME280;17847;31.524;74.366;2022-08-19T18:27:29;97660.75;;;32.33;61.48
31225;BME280;17847;31.524;74.366;2022-08-19T18:30:07;97660.00;;;32.36;61.48
31225;BME280;17847;31.524;74.366;2022-08-19T18:33:05;97659.84;;;32.14;62.39
31225;BME280;17847;31.524;74.366;2022-08-19T18:35:48;97661.63;;;32.37;61.34
31225;BME280;17847;31.524;74.366;2022-08-19T18:38:47;97654.31;;;32.22;61.97
31225;BME280;17847;31.524;74.366;2022-08-19T18:41:40;97658.31;;;32.24;62.41
31225;BME280;17847;31.524;74.366;2022-08-19T18:44:54;97667.59;;;32.46;61.30
31225;BME280;17847;31.524;74.366;2022-08-19T18:47:55;97669.66;;;32.53;60.97
31225;BME280;17847;31.524;74.366;2022-08-19T18:51:07;97672.25;;;32.28;61.89
31225;BME280;17847;31.524;74.366;2022-08-19T18:53:55;97668.75;;;32.38;61.47
31225;BME280;17847;31.524;74.366;2022-08-19T18:56:50;97665.19;;;31.96;62.82
31225;BME280;17847;31.524;74.366;2022-08-19T18:59:36;97666.81;;;32.01;62.81
31225;BME280;17847;31.524;74.366;2022-08-19T19:02:28;97661.84;;;32.21;61.97
31225;BME280;17847;31.524;74.366;2022-08-19T19:05:13;97666.94;;;32.12;62.48
31225;BME280;17847;31.524;74.366;2022-08-19T19:08:06;97664.88;;;32.02;62.65
31225;BME280;17847;31.524;74.366;2022-08-19T19:10:48;97662.66;;;32.22;61.96
31225;BME280;17847;31.524;74.366;2022-08-19T19:13:39;97668.69;;;31.90;63.17
31225;BME280;17847;31.524;74.366;2022-08-19T19:16:21;97660.63;;;32.15;62.50
31225;BME280;17847;31.524;74.366;2022-08-19T19:19:11;97660.56;;;32.08;62.86
31225;BME280;17847;31.524;74.366;2022-08-19T19:22:10;97659.06;;;32.17;62.54
31225;BME280;17847;31.524;74.366;2022-08-19T19:25:06;97660.25;;;32.16;62.44
31225;BME280;17847;31.524;74.366;2022-08-19T19:27:50;97655.47;;;32.17;62.42
31225;BME280;17847;31.524;74.366;2022-08-19T19:30:45;97659.47;;;32.19;62.08
31225;BME280;17847;31.524;74.366;2022-08-19T19:33:28;97659.13;;;32.25;62.25
31225;BME280;17847;31.524;74.366;2022-08-19T19:36:23;97655.66;;;31.94;62.15
31225;BME280;17847;31.524;74.366;2022-08-19T19:39:06;97654.19;;;32.04;62.00
31225;BME280;17847;31.524;74.366;2022-08-19T19:42:22;97667.91;;;32.34;61.17
31225;BME280;17847;31.524;74.366;2022-08-19T19:44:58;97668.91;;;32.11;61.39
31225;BME280;17847;31.524;74.366;2022-08-19T19:47:54;97668.66;;;32.24;61.10
31225;BME280;17847;31.524;74.366;2022-08-19T19:50:35;97665.31;;;32.07;61.49
31225;BME280;17847;31.524;74.366;2022-08-19T19:53:25;97665.38;;;32.14;61.59
31225;BME280;17847;31.524;74.366;2022-08-19T19:56:07;97658.34;;;31.87;62.19
31225;BME280;17847;31.524;74.366;2022-08-19T19:59:03;97665.50;;;32.29;60.63
31225;BME280;17847;31.524;74.366;2022-08-19T20:01:38;97659.88;;;32.18;61.01
31225;BME280;17847;31.524;74.366;2022-08-19T20:04:39;97653.91;;;32.16;61.39
31225;BME280;17847;31.524;74.366;2022-08-19T20:07:15;97653.31;;;32.44;60.74
31225;BME280;17847;31.524;74.366;2022-08-19T20:10:30;97661.09;;;32.24;61.45
31225;BME280;17847;31.524;74.366;2022-08-19T20:13:12;97655.72;;;32.01;61.70
31225;BME280;17847;31.524;74.366;2022-08-19T20:16:04;97656.56;;;32.05;62.09
31225;BME280;17847;31.524;74.366;2022-08-19T20:18:39;97655.03;;;32.11;61.86
31225;BME280;17847;31.524;74.366;2022-08-19T20:21:37;97645.78;;;32.00;62.11
31225;BME280;17847;31.524;74.366;2022-08-19T20:24:34;97648.56;;;32.00;62.27
31225;BME280;17847;31.524;74.366;2022-08-19T20:27:17;97641.84;;;32.01;62.18
31225;BME280;17847;31.524;74.366;2022-08-19T20:30:20;97635.53;;;32.04;62.41
31225;BME280;17847;31.524;74.366;2022-08-19T20:33:06;97639.72;;;31.87;63.02
31225;BME280;17847;31.524;74.366;2022-08-19T20:35:55;97633.59;;;32.05;61.91
31225;BME280;17847;31.524;74.366;2022-08-19T20:38:38;97638.41;;;32.15;61.81
31225;BME280;17847;31.524;74.366;2022-08-19T20:41:26;97633.13;;;31.61;63.45
31225;BME280;17847;31.524;74.366;2022-08-19T20:44:09;97636.41;;;32.08;62.09
31225;BME280;17847;31.524;74.366;2022-08-19T20:46:57;97626.44;;;32.04;62.42
31225;BME280;17847;31.524;74.366;2022-08-19T20:49:39;97636.16;;;31.87;63.16
31225;BME280;17847;31.524;74.366;2022-08-19T20:52:28;97620.66;;;31.82;63.25
31225;BME280;17847;31.524;74.366;2022-08-19T20:55:11;97620.97;;;32.14;62.57
31225;BME280;17847;31.524;74.366;2022-08-19T20:58:02;97613.84;;;31.72;63.84
31225;BME280;17847;31.524;74.366;2022-08-19T21:00:45;97624.34;;;31.56;63.89
31225;BME280;17847;31.524;74.366;2022-08-19T21:03:42;97635.66;;;31.77;63.69
31225;BME280;17847;31.524;74.366;2022-08-19T21:06:25;97629.75;;;31.79;63.54
31225;BME280;17847;31.524;74.366;2022-08-19T21:09:14;97626.94;;;31.75;63.61
31225;BME280;17847;31.524;74.366;2022-08-19T21:11:56;97629.44;;;31.88;63.33
31225;BME280;17847;31.524;74.366;2022-08-19T21:14:52;97624.34;;;31.56;64.04
31225;BME280;17847;31.524;74.366;2022-08-19T21:17:34;97624.09;;;31.68;64.03
31225;BME280;17847;31.524;74.366;2022-08-19T21:20:22;97623.69;;;31.70;63.56
31225;BME280;17847;31.524;74.366;2022-08-19T21:23:14;97625.25;;;31.67;63.95
31225;BME280;17847;31.524;74.366;2022-08-19T21:26:10;97620.19;;;31.39;64.48
31225;BME280;17847;31.524;74.366;2022-08-19T21:28:53;97618.03;;;31.55;64.08
31225;BME280;17847;31.524;74.366;2022-08-19T21:31:41;97616.50;;;31.61;63.53
31225;BME280;17847;31.524;74.366;2022-08-19T21:34:24;97611.31;;;31.60;64.32
31225;BME280;17847;31.524;74.366;2022-08-19T21:37:13;97605.44;;;31.65;63.84
31225;BME280;17847;31.524;74.366;2022-08-19T21:39:59;97601.88;;;31.31;64.77
31225;BME280;17847;31.524;74.366;2022-08-19T21:42:47;97595.78;;;31.52;63.81
31225;BME280;17847;31.524;74.366;2022-08-19T21:45:29;97594.06;;;31.40;65.07
31225;BME280;17847;31.524;74.366;2022-08-19T21:48:18;97604.44;;;31.47;64.30
31225;BME280;17847;31.524;74.366;2022-08-19T21:51:01;97602.50;;;31.51;63.42
31225;BME280;17847;31.524;74.366;2022-08-19T21:53:49;97599.44;;;31.26;64.36
31225;BME280;17847;31.524;74.366;2022-08-19T21:56:33;97593.63;;;31.75;63.42
31225;BME280;17847;31.524;74.366;2022-08-19T21:59:21;97593.97;;;31.67;63.12